Time;durP1;ratioP1;P1;durP2;ratioP2;P2;SDS_P1;SDS_P2;PMS_P1;PMS_P2;Temp;Humidity;BMP_temperature;BMP_pressure;BME280_temperature;BME280_humidity;BME280_pressure;Samples;Min_cycle;Max_cycle;Signal;HPM_P1;HPM_P2
2023/03/20 00:00:45;;;;;;;4.70;3.10;;;11.90;99.90;;;;;;5074151;28;20511;-69
2023/03/20 00:03:12;;;;;;;4.13;3.27;;;11.80;99.90;;;;;;5065492;28;20950;-68
2023/03/20 00:05:38;;;;;;;9.13;3.20;;;11.80;99.90;;;;;;5073493;28;20458;-68
2023/03/20 00:08:04;;;;;;;4.03;3.53;;;11.80;99.90;;;;;;5074283;28;20436;-68
2023/03/20 00:10:41;;;;;;;4.43;2.73;;;11.70;99.90;;;;;;5061725;28;20444;-68
2023/03/20 00:13:14;;;;;;;3.70;3.40;;;11.70;99.90;;;;;;5075095;28;20413;-68
2023/03/20 00:15:42;;;;;;;5.10;3.47;;;11.70;99.90;;;;;;5074106;28;20872;-69
2023/03/20 00:18:17;;;;;;;5.20;3.30;;;11.60;99.90;;;;;;5072304;28;20416;-67
2023/03/20 00:20:43;;;;;;;4.33;3.90;;;11.50;99.90;;;;;;5074029;28;20427;-67
2023/03/20 00:23:09;;;;;;;7.20;3.50;;;11.50;99.90;;;;;;5071593;28;20505;-68
2023/03/20 00:25:38;;;;;;;4.43;4.13;;;11.50;99.90;;;;;;5073479;28;20483;-68
2023/03/20 00:28:39;;;;;;;3.53;3.20;;;11.40;99.90;;;;;;5072498;28;20460;-69
2023/03/20 00:31:25;;;;;;;3.53;3.23;;;11.40;99.90;;;;;;5073476;28;20940;-68
2023/03/20 00:33:53;;;;;;;3.60;3.03;;;11.20;99.90;;;;;;5056848;28;20412;-69
2023/03/20 00:36:19;;;;;;;3.50;3.20;;;11.20;99.90;;;;;;5072567;28;20409;-67
2023/03/20 00:38:45;;;;;;;5.80;3.23;;;11.10;99.90;;;;;;5069299;28;20400;-67
2023/03/20 00:41:27;;;;;;;4.07;3.67;;;11.10;99.90;;;;;;5072279;28;20937;-68
2023/03/20 00:44:03;;;;;;;5.40;3.80;;;11.00;99.90;;;;;;5070636;28;20396;-68
2023/03/20 00:46:33;;;;;;;4.70;3.53;;;10.90;99.90;;;;;;5073695;28;20410;-69
2023/03/20 00:49:00;;;;;;;4.50;3.67;;;10.80;99.90;;;;;;5074635;28;20404;-69
2023/03/20 00:51:26;;;;;;;4.07;3.00;;;10.70;99.90;;;;;;5077028;28;20436;-68
2023/03/20 00:53:51;;;;;;;4.30;3.90;;;10.70;99.90;;;;;;5075602;28;20404;-69
2023/03/20 00:56:29;;;;;;;4.43;3.73;;;10.60;99.90;;;;;;5073542;28;20166;-67
2023/03/20 00:58:55;;;;;;;4.87;4.40;;;10.50;99.90;;;;;;5072835;28;20170;-68
2023/03/20 01:01:20;;;;;;;5.30;4.50;;;10.40;99.90;;;;;;5073175;28;20427;-69
2023/03/20 01:03:46;;;;;;;4.90;4.40;;;10.40;99.90;;;;;;5073364;28;20427;-67
2023/03/20 01:06:12;;;;;;;4.87;3.30;;;10.30;99.90;;;;;;5072984;28;20166;-67
2023/03/20 01:08:37;;;;;;;5.43;4.40;;;10.30;99.90;;;;;;5072614;28;20225;-67
2023/03/20 01:11:03;;;;;;;4.93;4.40;;;10.30;99.90;;;;;;5072373;28;20687;-67
2023/03/20 01:13:31;;;;;;;6.10;4.13;;;10.20;99.90;;;;;;5072657;28;20273;-67
2023/03/20 01:15:58;;;;;;;4.97;4.37;;;10.10;99.90;;;;;;5072354;28;20539;-68
2023/03/20 01:18:25;;;;;;;4.47;3.93;;;10.10;99.90;;;;;;5072322;28;20404;-68
2023/03/20 01:20:52;;;;;;;4.90;3.73;;;10.00;99.90;;;;;;5056804;28;20425;-68
2023/03/20 01:23:19;;;;;;;4.60;3.73;;;10.00;99.90;;;;;;5059443;28;20507;-68
2023/03/20 01:25:44;;;;;;;5.10;4.60;;;9.90;99.90;;;;;;5071717;28;20430;-67
2023/03/20 01:28:20;;;;;;;3.73;3.43;;;10.00;99.90;;;;;;5071732;28;20495;-68
2023/03/20 01:30:46;;;;;;;5.53;4.33;;;9.90;99.90;;;;;;5071467;28;20569;-68
2023/03/20 01:33:30;;;;;;;4.80;4.30;;;9.90;99.90;;;;;;5071210;28;20420;-68
2023/03/20 01:35:58;;;;;;;4.90;4.50;;;9.90;99.90;;;;;;5074614;28;20966;-66
2023/03/20 01:38:25;;;;;;;5.00;4.53;;;9.90;99.90;;;;;;5072143;28;20927;-67
2023/03/20 01:41:12;;;;;;;4.40;3.87;;;9.90;99.90;;;;;;5075061;28;20439;-68
2023/03/20 01:43:39;;;;;;;6.63;5.10;;;9.80;99.90;;;;;;5076095;28;20842;-68
2023/03/20 01:46:10;;;;;;;4.60;4.20;;;9.80;99.90;;;;;;5075618;28;20461;-67
2023/03/20 01:49:04;;;;;;;5.33;4.80;;;9.80;99.90;;;;;;5075495;28;20454;-68
2023/03/20 01:51:35;;;;;;;5.80;4.43;;;9.80;99.90;;;;;;5070467;28;20516;-67
2023/03/20 01:54:03;;;;;;;6.47;4.80;;;9.80;99.90;;;;;;5075142;28;20435;-67
2023/03/20 01:56:31;;;;;;;7.00;5.03;;;9.80;99.90;;;;;;5075144;28;20474;-68
2023/03/20 01:59:03;;;;;;;10.87;5.40;;;9.90;99.90;;;;;;5075169;28;20416;-68
2023/03/20 02:01:29;;;;;;;5.40;4.90;;;9.90;99.90;;;;;;5075289;28;20439;-69
2023/03/20 02:03:56;;;;;;;6.53;4.47;;;9.90;99.90;;;;;;5075723;28;20396;-69
2023/03/20 02:06:23;;;;;;;5.50;4.90;;;10.00;99.90;;;;;;5076032;28;20404;-68
2023/03/20 02:08:51;;;;;;;6.40;4.57;;;10.00;99.90;;;;;;5075182;28;20452;-68
2023/03/20 02:11:21;;;;;;;5.60;4.80;;;10.00;99.90;;;;;;5071655;28;20527;-69
2023/03/20 02:13:48;;;;;;;5.57;4.20;;;10.10;99.90;;;;;;5076113;28;20458;-69
2023/03/20 02:16:16;;;;;;;6.77;5.00;;;10.10;99.90;;;;;;5074959;28;20457;-68
2023/03/20 02:18:48;;;;;;;7.47;4.33;;;10.00;99.90;;;;;;5056645;28;20440;-68
2023/03/20 02:21:51;;;;;;;8.63;5.77;;;10.00;99.90;;;;;;5067654;28;20421;-68
2023/03/20 02:24:31;;;;;;;5.10;4.60;;;10.00;99.90;;;;;;5074723;28;20928;-68
2023/03/20 02:27:16;;;;;;;6.80;5.53;;;10.00;99.90;;;;;;5074730;28;20440;-69
2023/03/20 02:30:00;;;;;;;6.00;5.07;;;10.10;99.90;;;;;;5075112;28;20823;-69
2023/03/20 02:32:28;;;;;;;6.17;4.43;;;10.00;99.90;;;;;;5076168;28;20966;-69
2023/03/20 02:35:12;;;;;;;7.33;4.77;;;10.00;99.90;;;;;;5081283;28;20452;-69
2023/03/20 02:37:56;;;;;;;5.13;4.70;;;10.10;99.90;;;;;;5084920;28;20425;-68
2023/03/20 02:40:43;;;;;;;7.43;4.60;;;10.10;99.90;;;;;;5068651;28;20440;-69
2023/03/20 02:43:14;;;;;;;5.97;5.03;;;10.00;99.90;;;;;;5073294;28;20409;-68
2023/03/20 02:45:53;;;;;;;11.47;5.17;;;10.10;99.90;;;;;;5074459;28;20442;-69
2023/03/20 02:48:26;;;;;;;5.67;5.10;;;10.10;99.90;;;;;;5068027;28;20503;-68
2023/03/20 02:51:11;;;;;;;7.00;5.13;;;10.10;99.90;;;;;;5074137;28;20464;-68
2023/03/20 02:54:06;;;;;;;8.40;4.67;;;10.10;99.90;;;;;;5063419;28;20968;-68
2023/03/20 02:56:57;;;;;;;6.13;5.40;;;10.10;99.90;;;;;;5072895;28;20413;-68
2023/03/20 02:59:28;;;;;;;10.60;4.60;;;10.10;99.90;;;;;;5068463;28;20407;-69
2023/03/20 03:02:04;;;;;;;6.30;5.20;;;10.20;99.90;;;;;;5074781;28;20415;-68
2023/03/20 03:04:35;;;;;;;5.90;4.90;;;10.20;99.90;;;;;;5074979;28;20408;-67
2023/03/20 03:07:04;;;;;;;6.70;5.77;;;10.20;99.90;;;;;;5073766;28;20407;-68
2023/03/20 03:09:37;;;;;;;6.03;5.43;;;10.20;99.90;;;;;;5074661;28;20817;-67
2023/03/20 03:12:20;;;;;;;9.63;5.00;;;10.20;99.90;;;;;;5073947;28;20424;-68
2023/03/20 03:14:51;;;;;;;6.87;5.63;;;10.30;99.90;;;;;;5074457;28;20491;-68
2023/03/20 03:17:20;;;;;;;6.70;5.40;;;10.30;99.90;;;;;;5067338;28;20397;-68
2023/03/20 03:19:51;;;;;;;7.80;5.07;;;10.30;99.90;;;;;;5074437;28;20618;-68
2023/03/20 03:22:17;;;;;;;6.67;5.07;;;10.30;99.90;;;;;;5074366;28;20428;-67
2023/03/20 03:24:47;;;;;;;7.70;6.33;;;10.40;99.90;;;;;;5073473;28;20416;-67
2023/03/20 03:27:17;;;;;;;6.47;5.83;;;10.30;99.90;;;;;;5071142;28;20412;-67
2023/03/20 03:29:44;;;;;;;7.47;5.90;;;10.40;99.90;;;;;;5075667;28;20466;-67
2023/03/20 03:32:47;;;;;;;8.60;7.43;;;10.40;99.90;;;;;;5070783;28;20456;-67
2023/03/20 03:35:17;;;;;;;6.23;5.67;;;10.30;99.90;;;;;;4975775;28;20456;-68
2023/03/20 03:37:55;;;;;;;6.60;5.93;;;10.40;99.90;;;;;;5073963;28;20416;-68
2023/03/20 03:40:30;;;;;;;8.17;6.00;;;10.30;99.90;;;;;;5067525;28;20880;-68
2023/03/20 03:43:13;;;;;;;5.87;5.37;;;10.30;99.90;;;;;;5072125;28;20523;-67
2023/03/20 03:46:11;;;;;;;7.63;6.37;;;10.30;99.90;;;;;;5074158;28;20894;-68
2023/03/20 03:48:44;;;;;;;9.40;5.37;;;10.30;99.90;;;;;;5044095;28;20425;-68
2023/03/20 03:51:18;;;;;;;6.53;5.87;;;10.30;99.90;;;;;;5056715;28;20428;-69
2023/03/20 03:53:50;;;;;;;10.90;5.90;;;10.20;99.90;;;;;;5074542;28;20427;-69
2023/03/20 03:56:22;;;;;;;5.50;4.87;;;10.20;99.90;;;;;;5073151;28;20484;-69
2023/03/20 03:58:52;;;;;;;7.57;6.10;;;10.20;99.90;;;;;;5074030;28;20420;-69
2023/03/20 04:01:20;;;;;;;6.37;5.77;;;10.20;99.90;;;;;;5074044;28;20877;-68
2023/03/20 04:03:50;;;;;;;8.93;6.67;;;10.20;99.90;;;;;;5073575;28;20617;-68
2023/03/20 04:06:16;;;;;;;8.93;6.43;;;10.20;99.90;;;;;;5073967;28;20413;-68
2023/03/20 04:08:42;;;;;;;6.97;6.27;;;10.20;99.90;;;;;;5075085;28;20495;-68
2023/03/20 04:11:24;;;;;;;7.87;6.47;;;10.10;99.90;;;;;;5075568;28;20440;-68
2023/03/20 04:13:51;;;;;;;7.83;6.70;;;10.10;99.90;;;;;;5057801;28;20478;-68
2023/03/20 04:16:18;;;;;;;11.20;6.93;;;10.10;99.90;;;;;;5075793;28;20452;-68
2023/03/20 04:18:44;;;;;;;10.00;6.87;;;10.10;99.90;;;;;;5074960;28;20416;-68
2023/03/20 04:21:10;;;;;;;7.90;6.47;;;10.10;99.90;;;;;;5065891;28;20425;-68
2023/03/20 04:23:36;;;;;;;6.93;5.47;;;10.10;99.90;;;;;;5073661;28;20408;-68
2023/03/20 04:26:03;;;;;;;7.43;6.00;;;10.10;99.90;;;;;;5073819;28;20415;-68
2023/03/20 04:28:29;;;;;;;9.03;6.87;;;10.00;99.90;;;;;;5073770;28;20190;-68
2023/03/20 04:30:56;;;;;;;9.30;7.03;;;10.10;99.90;;;;;;5073553;28;20436;-68
2023/03/20 04:33:22;;;;;;;8.13;6.20;;;10.00;99.90;;;;;;5073357;28;20228;-68
2023/03/20 04:35:48;;;;;;;8.87;6.43;;;10.00;99.90;;;;;;5055164;28;20924;-68
2023/03/20 04:38:14;;;;;;;8.00;6.30;;;10.00;99.90;;;;;;5073587;28;20416;-68
2023/03/20 04:40:40;;;;;;;7.00;6.33;;;10.00;99.90;;;;;;5073698;28;20664;-67
2023/03/20 04:43:06;;;;;;;13.90;7.30;;;10.00;99.90;;;;;;5093338;22;20993;-74
2023/03/20 04:45:31;;;;;;;7.83;6.70;;;10.00;99.90;;;;;;5071282;28;20260;-74
2023/03/20 04:47:57;;;;;;;10.27;7.63;;;10.00;99.90;;;;;;5070720;28;20174;-75
2023/03/20 04:50:23;;;;;;;6.73;6.03;;;10.00;99.90;;;;;;5071193;28;20174;-74
2023/03/20 04:52:48;;;;;;;12.73;7.90;;;10.00;99.90;;;;;;5070877;28;20558;-75
2023/03/20 04:55:15;;;;;;;8.37;7.47;;;10.00;99.90;;;;;;5071230;28;20243;-74
2023/03/20 04:57:40;;;;;;;11.10;6.33;;;10.00;99.90;;;;;;5071286;28;20562;-74
2023/03/20 05:00:07;;;;;;;7.83;6.80;;;9.90;99.90;;;;;;5071105;28;20429;-74
2023/03/20 05:02:32;;;;;;;9.23;7.23;;;10.00;99.90;;;;;;5071239;28;20190;-74
2023/03/20 05:04:58;;;;;;;10.17;7.37;;;10.00;99.90;;;;;;5070621;28;20457;-73
2023/03/20 05:07:23;;;;;;;7.10;6.40;;;10.00;99.90;;;;;;5070683;28;20175;-74
2023/03/20 05:09:49;;;;;;;10.37;7.00;;;10.00;99.90;;;;;;5071068;28;20250;-74
2023/03/20 05:12:15;;;;;;;8.30;7.37;;;10.00;99.90;;;;;;5070790;28;20288;-74
2023/03/20 05:14:41;;;;;;;8.37;7.47;;;10.00;99.90;;;;;;5073566;28;20190;-73
2023/03/20 05:17:06;;;;;;;8.70;7.03;;;10.00;99.90;;;;;;5074717;28;20163;-74
2023/03/20 05:19:32;;;;;;;9.87;7.87;;;10.00;99.90;;;;;;5074583;28;20201;-74
2023/03/20 05:21:57;;;;;;;9.90;7.40;;;10.00;99.90;;;;;;5074258;28;20193;-74
2023/03/20 05:24:23;;;;;;;11.33;7.60;;;10.00;99.90;;;;;;5074570;28;20216;-74
2023/03/20 05:26:49;;;;;;;10.73;8.27;;;10.00;99.90;;;;;;5074205;28;20178;-74
2023/03/20 05:29:14;;;;;;;12.30;8.50;;;10.00;99.90;;;;;;5074507;28;20174;-74
2023/03/20 05:31:40;;;;;;;10.37;8.03;;;10.00;99.90;;;;;;5074177;28;20243;-74
2023/03/20 05:34:06;;;;;;;10.87;9.73;;;10.00;99.90;;;;;;5074239;28;20352;-74
2023/03/20 05:36:31;;;;;;;9.73;8.57;;;10.00;99.90;;;;;;5074296;28;20236;-74
2023/03/20 05:38:57;;;;;;;11.60;9.60;;;10.10;99.90;;;;;;5074086;28;20167;-74
2023/03/20 05:41:23;;;;;;;16.90;10.03;;;10.10;99.90;;;;;;5074201;28;20182;-74
2023/03/20 05:43:49;;;;;;;12.73;10.00;;;10.10;99.90;;;;;;5074438;28;20219;-75
2023/03/20 05:46:15;;;;;;;13.97;10.60;;;10.10;99.90;;;;;;5074209;28;20170;-74
2023/03/20 05:48:40;;;;;;;14.37;11.27;;;10.10;99.90;;;;;;5073959;28;20423;-74
2023/03/20 05:51:06;;;;;;;13.83;11.37;;;10.10;99.90;;;;;;5074131;28;20414;-75
2023/03/20 05:53:32;;;;;;;14.27;9.03;;;10.10;99.90;;;;;;5074152;28;20206;-75
2023/03/20 05:55:57;;;;;;;11.43;7.83;;;10.00;99.90;;;;;;5073703;28;20202;-73
2023/03/20 05:58:23;;;;;;;11.30;10.10;;;10.00;99.90;;;;;;5073882;28;20245;-73
2023/03/20 06:00:49;;;;;;;10.50;8.87;;;10.00;99.90;;;;;;5073917;28;20175;-74
2023/03/20 06:03:15;;;;;;;12.67;10.17;;;9.90;99.90;;;;;;5073896;28;20225;-73
2023/03/20 06:05:41;;;;;;;10.87;9.50;;;9.90;99.90;;;;;;5073564;28;20213;-74
2023/03/20 06:08:06;;;;;;;12.90;10.07;;;10.00;99.90;;;;;;5076187;28;20243;-75
2023/03/20 06:10:32;;;;;;;13.00;11.30;;;10.00;99.90;;;;;;5073887;28;20469;-74
2023/03/20 06:12:59;;;;;;;12.27;10.40;;;9.90;99.90;;;;;;5073333;28;20255;-74
2023/03/20 06:15:27;;;;;;;14.60;11.67;;;10.00;99.90;;;;;;5073570;28;20198;-73
2023/03/20 06:17:53;;;;;;;11.50;10.33;;;9.80;99.90;;;;;;5073356;28;20427;-73
2023/03/20 06:20:19;;;;;;;14.70;10.03;;;9.80;99.90;;;;;;5073524;28;20404;-73
2023/03/20 06:22:45;;;;;;;15.60;9.93;;;9.90;99.90;;;;;;5073377;28;20436;-74
2023/03/20 06:25:11;;;;;;;15.57;10.80;;;9.70;99.90;;;;;;5063320;28;20807;-74
2023/03/20 06:27:36;;;;;;;18.67;11.37;;;9.60;99.90;;;;;;5075193;28;20415;-74
2023/03/20 06:30:03;;;;;;;13.57;10.70;;;9.60;99.90;;;;;;5073573;28;20174;-74
2023/03/20 06:32:29;;;;;;;12.50;9.70;;;9.60;99.90;;;;;;5069124;28;20206;-74
2023/03/20 06:34:54;;;;;;;18.07;12.37;;;9.50;99.90;;;;;;5070978;28;20455;-74
2023/03/20 06:37:20;;;;;;;14.37;10.47;;;9.50;99.90;;;;;;5074156;28;20172;-73
2023/03/20 06:39:46;;;;;;;15.20;11.30;;;9.40;99.90;;;;;;5075212;28;20169;-73
2023/03/20 06:42:12;;;;;;;17.73;11.13;;;9.30;99.90;;;;;;5072868;28;20941;-72
2023/03/20 06:44:38;;;;;;;15.57;12.50;;;9.30;99.90;;;;;;5055546;28;20185;-75
2023/03/20 06:47:04;;;;;;;18.63;13.00;;;9.30;99.90;;;;;;5073157;28;20182;-74
2023/03/20 06:49:30;;;;;;;20.17;13.63;;;9.30;99.90;;;;;;5073037;28;20506;-75
2023/03/20 06:51:55;;;;;;;21.87;15.17;;;9.30;99.90;;;;;;5072878;28;20873;-74
2023/03/20 06:54:21;;;;;;;23.60;15.00;;;9.30;99.90;;;;;;5072790;28;20193;-74
2023/03/20 06:56:47;;;;;;;21.43;13.40;;;9.30;99.90;;;;;;5072626;28;20201;-75
2023/03/20 06:59:12;;;;;;;22.27;15.30;;;9.20;99.90;;;;;;5074812;28;20220;-74
2023/03/20 07:01:38;;;;;;;22.67;15.90;;;9.10;99.90;;;;;;5080607;28;20212;-73
2023/03/20 07:04:04;;;;;;;26.93;13.73;;;9.10;99.90;;;;;;5073633;28;20167;-73
2023/03/20 07:06:31;;;;;;;25.00;15.77;;;9.10;99.90;;;;;;5051405;28;20546;-74
2023/03/20 07:08:56;;;;;;;27.20;15.43;;;9.10;99.90;;;;;;5071509;28;20909;-74
2023/03/20 07:11:22;;;;;;;25.70;16.23;;;9.10;99.90;;;;;;5075214;28;20411;-74
2023/03/20 07:13:48;;;;;;;22.60;15.93;;;9.20;99.90;;;;;;5073426;28;20629;-75
2023/03/20 07:16:13;;;;;;;29.70;17.03;;;9.10;99.90;;;;;;5054435;28;20200;-74
2023/03/20 07:18:39;;;;;;;29.27;16.20;;;9.00;99.90;;;;;;5072463;28;20169;-74
2023/03/20 07:21:06;;;;;;;29.70;17.23;;;9.00;99.90;;;;;;5072249;28;20177;-73
2023/03/20 07:23:35;;;;;;;25.00;16.70;;;9.10;99.90;;;;;;5072193;28;20199;-73
2023/03/20 07:26:02;;;;;;;27.40;17.60;;;9.00;99.90;;;;;;5071959;28;20416;-74
2023/03/20 07:28:28;;;;;;;28.40;16.33;;;9.00;99.90;;;;;;5072133;28;20417;-73
2023/03/20 07:30:54;;;;;;;31.43;17.23;;;9.00;99.90;;;;;;5072791;28;20404;-73
2023/03/20 07:33:19;;;;;;;26.33;15.73;;;8.90;99.90;;;;;;5072999;28;20209;-74
2023/03/20 07:35:45;;;;;;;31.37;17.87;;;8.90;99.90;;;;;;5072705;28;20521;-74
2023/03/20 07:38:11;;;;;;;30.60;15.80;;;8.90;99.90;;;;;;5072728;28;20169;-74
2023/03/20 07:40:37;;;;;;;31.07;15.90;;;9.00;99.90;;;;;;5072510;28;20407;-73
2023/03/20 07:43:02;;;;;;;24.30;15.17;;;9.00;99.90;;;;;;5072458;28;20208;-74
2023/03/20 07:45:28;;;;;;;30.93;16.13;;;9.10;99.90;;;;;;5072105;28;20180;-74
2023/03/20 07:47:53;;;;;;;34.10;17.03;;;8.90;99.90;;;;;;5071540;28;20229;-74
2023/03/20 07:50:19;;;;;;;33.50;17.50;;;8.90;99.90;;;;;;5071481;28;20174;-74
2023/03/20 07:52:48;;;;;;;24.03;14.77;;;9.00;99.90;;;;;;5071575;28;20194;-73
2023/03/20 07:55:15;;;;;;;29.60;14.80;;;9.00;99.90;;;;;;5071929;28;20197;-74
2023/03/20 07:57:41;;;;;;;25.10;13.50;;;9.10;99.90;;;;;;5071474;28;20783;-73
2023/03/20 08:00:07;;;;;;;25.83;14.93;;;9.10;99.90;;;;;;5071588;28;20404;-70
2023/03/20 08:02:33;;;;;;;29.60;15.10;;;9.30;99.90;;;;;;5071166;28;20428;-68
2023/03/20 08:04:59;;;;;;;43.57;21.10;;;9.40;99.90;;;;;;5071976;28;20423;-69
2023/03/20 08:07:25;;;;;;;25.10;13.97;;;9.50;99.90;;;;;;5071625;28;20176;-74
2023/03/20 08:09:51;;;;;;;23.90;14.13;;;9.50;99.90;;;;;;5071376;28;20611;-74
2023/03/20 08:12:17;;;;;;;23.73;13.53;;;9.40;99.90;;;;;;5071475;28;20308;-74
2023/03/20 08:14:43;;;;;;;22.80;13.77;;;9.60;99.90;;;;;;5071451;28;20448;-74
2023/03/20 08:17:09;;;;;;;22.83;12.90;;;9.70;99.90;;;;;;5071550;28;20400;-74
2023/03/20 08:19:35;;;;;;;29.73;13.80;;;9.70;99.90;;;;;;5071755;28;20405;-74
2023/03/20 08:22:01;;;;;;;26.50;14.47;;;9.60;99.90;;;;;;5065759;28;20459;-74
2023/03/20 08:24:26;;;;;;;28.50;15.30;;;9.60;99.90;;;;;;5071249;28;20263;-73
2023/03/20 08:26:52;;;;;;;23.43;14.00;;;9.50;99.90;;;;;;5070945;28;20419;-74
2023/03/20 08:29:18;;;;;;;30.30;14.73;;;9.60;99.90;;;;;;5071186;28;20162;-74
2023/03/20 08:31:44;;;;;;;29.33;14.13;;;9.50;99.90;;;;;;5070414;28;20244;-74
2023/03/20 08:34:10;;;;;;;20.97;13.00;;;9.60;99.90;;;;;;5062664;28;20408;-75
2023/03/20 08:36:36;;;;;;;21.83;13.47;;;9.60;99.90;;;;;;5070867;28;20476;-73
2023/03/20 08:39:01;;;;;;;24.23;11.97;;;9.60;99.90;;;;;;5063958;28;20163;-74
2023/03/20 08:41:27;;;;;;;24.03;14.27;;;9.70;99.90;;;;;;5071427;28;20185;-74
2023/03/20 08:43:53;;;;;;;20.77;12.97;;;9.90;99.90;;;;;;5071419;28;20814;-75
2023/03/20 08:46:18;;;;;;;19.10;12.07;;;10.50;99.90;;;;;;5072178;28;20167;-74
2023/03/20 08:48:44;;;;;;;16.70;10.20;;;10.80;99.90;;;;;;5071370;28;20518;-75
2023/03/20 08:51:10;;;;;;;18.77;12.30;;;11.20;99.90;;;;;;5071504;28;20220;-75
2023/03/20 08:53:35;;;;;;;17.37;12.27;;;11.70;99.90;;;;;;5071172;28;20194;-75
2023/03/20 08:56:01;;;;;;;18.03;10.93;;;12.50;99.90;;;;;;5070807;28;20558;-74
2023/03/20 08:58:27;;;;;;;17.80;10.80;;;12.90;99.90;;;;;;5071566;28;20167;-75
2023/03/20 09:00:53;;;;;;;18.30;12.63;;;12.40;99.90;;;;;;5070857;28;20261;-73
2023/03/20 09:03:20;;;;;;;12.80;9.33;;;11.60;99.90;;;;;;5070302;28;20511;-75
2023/03/20 09:05:47;;;;;;;14.70;9.37;;;11.60;99.90;;;;;;5063898;28;20253;-74
2023/03/20 09:08:13;;;;;;;16.47;10.37;;;11.90;99.90;;;;;;5068641;28;20408;-74
2023/03/20 09:10:42;;;;;;;18.97;12.13;;;11.50;99.90;;;;;;5069220;28;20413;-75
2023/03/20 09:13:08;;;;;;;19.83;11.20;;;11.80;99.90;;;;;;5061190;28;20933;-74
2023/03/20 09:15:34;;;;;;;16.33;12.30;;;11.80;99.90;;;;;;5066107;28;20444;-75
2023/03/20 09:18:00;;;;;;;16.77;11.87;;;12.00;99.90;;;;;;5062704;28;20202;-71
2023/03/20 09:20:26;;;;;;;14.07;10.40;;;12.30;99.90;;;;;;5067045;28;20412;-73
2023/03/20 09:22:51;;;;;;;17.90;10.13;;;12.50;99.90;;;;;;5069803;28;20187;-74
2023/03/20 09:25:17;;;;;;;17.00;10.33;;;12.30;99.90;;;;;;5070920;28;20413;-74
2023/03/20 09:27:43;;;;;;;18.00;11.80;;;12.60;99.90;;;;;;5070455;28;20637;-73
2023/03/20 09:30:10;;;;;;;14.30;9.33;;;12.60;99.90;;;;;;5069921;28;20186;-74
2023/03/20 09:32:36;;;;;;;13.50;9.90;;;12.50;99.90;;;;;;5070272;28;20264;-74
2023/03/20 09:35:02;;;;;;;13.37;8.40;;;12.50;99.90;;;;;;5069693;28;20491;-73
2023/03/20 09:37:28;;;;;;;16.00;10.80;;;12.70;99.90;;;;;;5069875;28;20603;-74
2023/03/20 09:39:54;;;;;;;14.27;8.80;;;12.10;99.90;;;;;;5069126;28;20558;-73
2023/03/20 09:42:42;;;;;;;16.87;8.57;;;12.30;99.90;;;;;;5069925;28;20221;-74
2023/03/20 09:45:16;;;;;;;23.20;10.97;;;12.70;99.90;;;;;;5069553;28;20503;-74
2023/03/20 09:48:01;;;;;;;16.57;10.10;;;12.40;99.90;;;;;;5069963;28;20959;-73
2023/03/20 09:50:36;;;;;;;13.87;8.00;;;12.40;99.90;;;;;;5045937;28;20417;-73
2023/03/20 09:53:15;;;;;;;13.93;7.87;;;12.80;99.90;;;;;;5068654;28;20438;-73
2023/03/20 09:55:43;;;;;;;13.03;8.50;;;13.10;99.90;;;;;;5069797;28;20448;-73
2023/03/20 09:58:13;;;;;;;10.43;7.53;;;12.90;99.90;;;;;;5069765;28;20401;-73
2023/03/20 10:00:43;;;;;;;11.30;7.60;;;12.90;99.90;;;;;;5071009;28;20779;-74
2023/03/20 10:03:35;;;;;;;13.63;7.60;;;12.70;99.90;;;;;;5073273;28;20424;-74
2023/03/20 10:06:10;;;;;;;9.37;7.23;;;12.30;99.90;;;;;;5055153;28;20420;-74
2023/03/20 10:08:37;;;;;;;12.20;8.50;;;12.10;99.90;;;;;;5073562;28;20423;-74
2023/03/20 10:11:09;;;;;;;14.20;7.37;;;11.70;99.90;;;;;;5073188;28;20874;-74
2023/03/20 10:13:51;;;;;;;12.80;7.43;;;11.90;99.90;;;;;;5073633;28;20431;-73
2023/03/20 10:16:49;;;;;;;10.97;6.87;;;11.80;99.90;;;;;;5052023;28;20452;-74
2023/03/20 10:19:28;;;;;;;15.50;7.73;;;11.70;99.90;;;;;;5056352;28;20790;-74
2023/03/20 10:22:14;;;;;;;11.33;7.17;;;11.50;99.90;;;;;;5071351;28;20443;-74
2023/03/20 10:24:48;;;;;;;13.10;7.03;;;11.50;99.90;;;;;;5054980;28;20413;-73
2023/03/20 10:27:23;;;;;;;10.27;6.73;;;11.40;99.90;;;;;;5065529;28;20400;-74
2023/03/20 10:30:14;;;;;;;10.30;7.40;;;11.50;99.90;;;;;;5073064;28;20435;-73
2023/03/20 10:33:08;;;;;;;9.83;5.67;;;11.50;99.90;;;;;;5073144;28;20431;-74
2023/03/20 10:35:49;;;;;;;12.37;8.33;;;11.70;99.90;;;;;;5041516;28;20452;-75
2023/03/20 10:38:51;;;;;;;10.00;6.50;;;11.90;99.90;;;;;;5068412;28;20456;-74
2023/03/20 10:41:21;;;;;;;10.00;6.80;;;11.90;99.90;;;;;;5055653;28;20416;-74
2023/03/20 10:43:51;;;;;;;9.77;7.10;;;11.90;99.90;;;;;;5111098;22;20522;-73
2023/03/20 10:46:39;;;;;;;11.07;6.37;;;12.00;99.90;;;;;;5044918;28;20945;-74
2023/03/20 10:49:09;;;;;;;12.00;6.67;;;11.90;99.90;;;;;;5033331;28;20493;-74
2023/03/20 10:51:39;;;;;;;9.77;6.33;;;11.60;99.90;;;;;;5044886;28;20468;-74
2023/03/20 10:54:09;;;;;;;11.60;7.60;;;11.80;99.90;;;;;;5052403;28;21624;-74
2023/03/20 10:56:46;;;;;;;10.00;7.43;;;12.10;99.90;;;;;;5029514;28;20811;-74
2023/03/20 10:59:33;;;;;;;12.83;6.40;;;12.20;99.90;;;;;;5046235;28;20907;-74
2023/03/20 11:01:59;;;;;;;8.33;6.07;;;12.40;99.90;;;;;;5044960;28;20789;-81
2023/03/20 11:04:25;;;;;;;9.83;5.87;;;12.50;99.90;;;;;;5053448;28;20483;-76
2023/03/20 11:07:16;;;;;;;11.97;5.60;;;12.60;99.90;;;;;;5052771;28;20585;-75
2023/03/20 11:09:42;;;;;;;10.60;5.60;;;12.60;99.90;;;;;;5052474;28;20408;-76
2023/03/20 11:12:17;;;;;;;9.43;6.37;;;12.40;99.90;;;;;;5052943;28;20437;-77
2023/03/20 11:14:42;;;;;;;13.23;6.67;;;12.20;99.90;;;;;;5053127;28;20225;-75
2023/03/20 11:17:09;;;;;;;9.07;5.17;;;12.60;99.90;;;;;;5052777;28;20880;-74
2023/03/20 11:19:40;;;;;;;10.13;6.47;;;12.60;99.90;;;;;;5053166;28;20542;-75
2023/03/20 11:22:32;;;;;;;8.40;5.10;;;12.50;99.90;;;;;;5052655;28;20451;-75
2023/03/20 11:25:00;;;;;;;9.77;5.43;;;12.30;99.90;;;;;;5048729;28;20446;-73
2023/03/20 11:27:31;;;;;;;8.47;6.47;;;12.00;99.90;;;;;;5044878;28;20613;-74
2023/03/20 11:30:01;;;;;;;9.73;5.23;;;12.00;99.90;;;;;;5050668;28;20816;-74
2023/03/20 11:32:45;;;;;;;6.43;4.47;;;12.20;99.90;;;;;;5034788;28;20533;-75
2023/03/20 11:35:22;;;;;;;7.90;5.33;;;11.90;99.90;;;;;;5052350;28;20456;-74
2023/03/20 11:37:51;;;;;;;11.63;7.10;;;12.00;99.90;;;;;;5053017;28;20413;-74
2023/03/20 11:40:31;;;;;;;11.30;6.73;;;12.10;99.90;;;;;;5052441;28;20445;-75
2023/03/20 11:43:05;;;;;;;8.43;5.30;;;11.90;99.90;;;;;;5042794;28;20421;-74
2023/03/20 11:45:36;;;;;;;11.50;4.83;;;11.90;99.90;;;;;;5050102;28;20497;-75
2023/03/20 11:48:03;;;;;;;7.33;5.73;;;12.30;99.90;;;;;;5053293;28;20420;-75
2023/03/20 11:50:35;;;;;;;7.90;5.10;;;12.50;99.90;;;;;;5053663;28;20475;-74
2023/03/20 11:53:19;;;;;;;11.10;4.73;;;12.60;99.90;;;;;;5037214;28;20570;-75
2023/03/20 11:56:12;;;;;;;8.20;5.20;;;12.40;99.90;;;;;;5036182;28;20818;-76
2023/03/20 11:59:14;;;;;;;7.27;4.60;;;12.50;99.90;;;;;;5055183;28;20410;-75
2023/03/20 12:01:47;;;;;;;8.10;5.90;;;12.40;99.90;;;;;;5027917;28;20857;-74
2023/03/20 12:04:42;;;;;;;10.80;6.20;;;12.30;99.90;;;;;;5046004;28;20441;-76
2023/03/20 12:07:28;;;;;;;8.07;6.20;;;12.20;99.90;;;;;;5051091;28;20404;-75
2023/03/20 12:10:01;;;;;;;9.50;6.00;;;12.40;99.90;;;;;;5049472;28;20421;-75
2023/03/20 12:12:47;;;;;;;8.00;5.97;;;12.20;99.90;;;;;;5051152;28;20490;-74
2023/03/20 12:15:33;;;;;;;13.20;6.27;;;12.20;99.90;;;;;;5051215;28;20507;-75
2023/03/20 12:18:07;;;;;;;9.07;5.60;;;12.10;99.90;;;;;;5051212;28;20488;-74
2023/03/20 12:20:56;;;;;;;7.90;5.20;;;12.10;99.90;;;;;;5052359;28;20765;-74
2023/03/20 12:23:46;;;;;;;9.27;5.80;;;12.10;99.90;;;;;;5043861;28;20785;-74
2023/03/20 12:26:23;;;;;;;8.70;6.70;;;12.10;99.90;;;;;;5046118;28;20420;-75
2023/03/20 12:29:07;;;;;;;12.47;6.60;;;12.50;99.90;;;;;;5051555;28;20412;-74
2023/03/20 12:31:55;;;;;;;13.33;6.53;;;12.30;99.90;;;;;;5051780;28;20496;-73
2023/03/20 12:34:31;;;;;;;9.07;6.13;;;12.40;99.90;;;;;;5050957;28;20444;-74
2023/03/20 12:36:57;;;;;;;13.80;6.50;;;12.30;99.90;;;;;;5051450;28;20397;-74
2023/03/20 12:39:28;;;;;;;11.80;6.20;;;12.40;99.90;;;;;;5051490;28;20413;-74
2023/03/20 12:42:03;;;;;;;16.60;6.50;;;12.30;99.90;;;;;;5051558;28;20409;-74
2023/03/20 12:44:42;;;;;;;13.43;6.73;;;12.20;99.90;;;;;;5050493;28;20449;-74
2023/03/20 12:47:35;;;;;;;9.07;6.60;;;12.30;99.90;;;;;;5050967;28;20445;-75
2023/03/20 12:50:29;;;;;;;8.60;6.40;;;12.50;99.90;;;;;;5032266;28;20445;-74
2023/03/20 12:53:13;;;;;;;9.00;6.50;;;12.20;99.90;;;;;;5051082;28;20400;-74
2023/03/20 12:56:24;;;;;;;11.70;7.73;;;12.00;99.90;;;;;;5032571;28;20453;-73
2023/03/20 12:58:59;;;;;;;32.33;19.80;;;12.00;99.90;;;;;;5033976;28;20820;-75
2023/03/20 13:01:36;;;;;;;12.03;7.30;;;12.10;99.90;;;;;;5045046;28;20421;-75